Terminal Aerodrome Forecast
Issued by NWS

Current Version | Previous Version | Text Only | Print | Product List | Glossary Off
Versions: 1 2 3 4 5 6 7 8 9 10 11 12 13 14 15 16 17 18 19 20 21 22 23 24 25

000
FTUS44 KOHX 250835 AAA
TAFCKV
TAF AMD
KCKV 250835Z 2509/2606 00000KT 1 1/2SM BR SKC
     FM251330 23005KT 4SM BR SKC
     FM251500 25004KT P6SM FEW040
     FM251800 25005KT P6SM SCT040 BKN150
     FM260100 VRB02KT P6SM SCT250=

USA.gov is the U.S. government's official web portal to all federal, state and local government web resources and services.